Time;durP1;ratioP1;P1;durP2;ratioP2;P2;SDS_P1;SDS_P2;PMS_P1;PMS_P2;Temp;Humidity;BMP_temperature;BMP_pressure;BME280_temperature;BME280_humidity;BME280_pressure;Samples;Min_cycle;Max_cycle;Signal;HPM_P1;HPM_P2
2022/01/10 00:01:09;;;;;;;7.18;3.95;;;;;;;;;;4993697;28;20166;-77
2022/01/10 00:03:36;;;;;;;6.93;4.07;;;;;;;;;;4993072;28;20050;-77
2022/01/10 00:06:02;;;;;;;9.15;4.57;;;;;;;;;;4992915;28;20086;-78
2022/01/10 00:08:30;;;;;;;7.72;4.38;;;;;;;;;;4992651;28;20089;-77
2022/01/10 00:10:56;;;;;;;7.40;3.88;;;;;;;;;;4994035;28;20046;-78
2022/01/10 00:13:23;;;;;;;7.80;4.40;;;;;;;;;;4995280;28;20054;-77
2022/01/10 00:15:51;;;;;;;6.85;4.07;;;;;;;;;;4993849;28;20468;-78
2022/01/10 00:18:18;;;;;;;7.32;4.78;;;;;;;;;;4993868;28;20085;-77
2022/01/10 00:20:45;;;;;;;7.22;4.10;;;;;;;;;;4995605;28;20390;-78
2022/01/10 00:23:11;;;;;;;7.97;4.65;;;;;;;;;;4994554;28;20097;-78
2022/01/10 00:25:38;;;;;;;7.57;4.35;;;;;;;;;;4994817;28;20074;-77
2022/01/10 00:28:05;;;;;;;6.13;4.00;;;;;;;;;;4995288;28;20489;-78
2022/01/10 00:30:31;;;;;;;7.03;4.40;;;;;;;;;;4998194;28;20070;-78
2022/01/10 00:33:00;;;;;;;9.10;4.55;;;;;;;;;;5000616;28;20104;-78
2022/01/10 00:35:26;;;;;;;8.88;4.88;;;;;;;;;;5000822;28;20054;-78
2022/01/10 00:37:53;;;;;;;8.68;4.43;;;;;;;;;;5000691;28;20486;-78
2022/01/10 00:40:20;;;;;;;8.52;4.30;;;;;;;;;;4999895;28;20050;-78
2022/01/10 00:42:54;;;;;;;9.00;4.82;;;;;;;;;;5000144;28;20046;-78
2022/01/10 00:45:25;;;;;;;8.50;5.00;;;;;;;;;;5002879;28;20460;-78
2022/01/10 00:47:52;;;;;;;7.60;4.78;;;;;;;;;;5001401;28;20058;-77
2022/01/10 00:50:21;;;;;;;8.45;4.45;;;;;;;;;;5000533;28;20055;-78
2022/01/10 00:52:48;;;;;;;8.82;4.35;;;;;;;;;;4998887;28;20053;-77
2022/01/10 00:55:15;;;;;;;7.32;4.70;;;;;;;;;;4993665;28;20117;-77
2022/01/10 00:57:41;;;;;;;8.00;4.40;;;;;;;;;;4998512;28;20051;-78
2022/01/10 01:00:11;;;;;;;7.50;4.43;;;;;;;;;;4993598;28;20085;-77
2022/01/10 01:02:38;;;;;;;7.60;4.65;;;;;;;;;;4994458;28;20081;-77
2022/01/10 01:05:07;;;;;;;7.32;4.22;;;;;;;;;;4996835;28;20465;-79
2022/01/10 01:07:39;;;;;;;9.50;5.00;;;;;;;;;;4996334;28;20077;-77
2022/01/10 01:10:26;;;;;;;8.18;4.05;;;;;;;;;;4994421;28;20532;-77
2022/01/10 01:12:57;;;;;;;8.82;4.57;;;;;;;;;;5002401;28;20097;-77
2022/01/10 01:15:29;;;;;;;8.77;4.57;;;;;;;;;;5006684;28;20085;-78
2022/01/10 01:18:11;;;;;;;10.25;4.50;;;;;;;;;;4998396;28;20054;-78
2022/01/10 01:23:59;;;;;;;8.95;4.72;;;;;;;;;;4997988;28;20090;-78
2022/01/10 01:26:18;;;;;;;7.65;4.20;;;;;;;;;;4994287;28;20057;-77
2022/01/10 01:28:45;;;;;;;7.32;4.13;;;;;;;;;;4995864;28;20046;-78
2022/01/10 01:31:11;;;;;;;7.65;4.10;;;;;;;;;;4996459;28;20665;-78
2022/01/10 01:33:39;;;;;;;10.40;4.82;;;;;;;;;;4996724;28;20086;-78
2022/01/10 01:36:06;;;;;;;8.60;4.68;;;;;;;;;;4996518;28;20129;-78
2022/01/10 01:38:34;;;;;;;8.82;4.85;;;;;;;;;;4996818;28;20078;-78
2022/01/10 01:41:18;;;;;;;7.80;5.15;;;;;;;;;;4997689;28;20085;-78
2022/01/10 01:43:45;;;;;;;8.10;4.35;;;;;;;;;;4997251;28;20061;-78
2022/01/10 01:46:12;;;;;;;8.32;4.50;;;;;;;;;;4996549;28;20077;-78
2022/01/10 01:48:39;;;;;;;7.13;4.47;;;;;;;;;;4995986;28;20054;-78
2022/01/10 01:51:06;;;;;;;7.53;4.63;;;;;;;;;;4995548;28;20082;-78
2022/01/10 01:53:36;;;;;;;8.00;4.85;;;;;;;;;;4995381;28;20088;-78
2022/01/10 01:56:04;;;;;;;7.03;4.57;;;;;;;;;;4995447;28;20057;-79
2022/01/10 01:58:32;;;;;;;8.27;4.65;;;;;;;;;;4994849;28;20085;-78
2022/01/10 02:00:59;;;;;;;7.13;4.35;;;;;;;;;;4998959;28;20047;-77
2022/01/10 02:03:26;;;;;;;8.48;4.75;;;;;;;;;;4996067;28;20509;-77
2022/01/10 02:05:53;;;;;;;9.88;4.50;;;;;;;;;;4995169;28;20505;-76
2022/01/10 02:08:19;;;;;;;6.55;4.57;;;;;;;;;;4994968;28;20498;-76
2022/01/10 02:10:48;;;;;;;10.20;5.40;;;;;;;;;;4997205;28;20089;-77
2022/01/10 02:13:14;;;;;;;7.78;4.30;;;;;;;;;;4996774;28;20096;-77
2022/01/10 02:15:47;;;;;;;7.43;4.22;;;;;;;;;;4995289;28;20050;-76
2022/01/10 02:18:14;;;;;;;8.30;4.55;;;;;;;;;;4996451;28;20096;-76
2022/01/10 02:20:43;;;;;;;8.90;4.60;;;;;;;;;;4997349;28;20046;-77
2022/01/10 02:23:10;;;;;;;10.50;5.10;;;;;;;;;;5004655;28;20046;-76
2022/01/10 02:25:37;;;;;;;8.25;4.40;;;;;;;;;;5009127;28;20061;-77
2022/01/10 02:28:04;;;;;;;7.28;4.63;;;;;;;;;;4998563;28;20089;-77
2022/01/10 02:30:31;;;;;;;7.40;4.15;;;;;;;;;;4996029;28;20508;-77
2022/01/10 02:33:00;;;;;;;8.43;4.32;;;;;;;;;;4997001;28;20533;-77
2022/01/10 02:35:30;;;;;;;8.82;4.70;;;;;;;;;;4996776;28;20049;-76
2022/01/10 02:37:59;;;;;;;6.78;4.20;;;;;;;;;;4994239;28;20548;-77
2022/01/10 02:40:28;;;;;;;8.20;4.32;;;;;;;;;;4993444;28;20493;-77
2022/01/10 02:42:56;;;;;;;8.77;4.90;;;;;;;;;;4994263;28;20568;-77
2022/01/10 02:45:23;;;;;;;8.30;4.93;;;;;;;;;;4996340;28;20065;-76
2022/01/10 02:47:51;;;;;;;7.63;4.45;;;;;;;;;;4996964;28;20166;-77
2022/01/10 02:50:20;;;;;;;9.32;5.00;;;;;;;;;;4994371;28;20471;-77
2022/01/10 02:52:47;;;;;;;8.90;4.57;;;;;;;;;;4993893;28;20547;-77
2022/01/10 02:55:15;;;;;;;7.93;4.63;;;;;;;;;;4994558;28;20417;-77
2022/01/10 02:57:43;;;;;;;9.18;4.18;;;;;;;;;;4996649;28;20097;-77
2022/01/10 03:00:13;;;;;;;7.53;4.88;;;;;;;;;;4995462;28;20573;-76
2022/01/10 03:02:42;;;;;;;8.00;4.65;;;;;;;;;;4994375;28;20540;-77
2022/01/10 03:05:10;;;;;;;7.70;4.28;;;;;;;;;;4994531;28;20093;-77
2022/01/10 03:07:37;;;;;;;9.05;4.82;;;;;;;;;;4994259;28;20183;-77
2022/01/10 03:10:04;;;;;;;9.35;4.78;;;;;;;;;;4995884;28;20050;-76
2022/01/10 03:12:33;;;;;;;7.80;4.68;;;;;;;;;;5004715;28;20173;-77
2022/01/10 03:15:00;;;;;;;6.95;4.38;;;;;;;;;;5004990;28;20050;-77
2022/01/10 03:17:28;;;;;;;10.23;5.00;;;;;;;;;;5005409;28;20055;-77
2022/01/10 03:19:55;;;;;;;8.98;5.35;;;;;;;;;;5007322;28;20042;-77
2022/01/10 03:22:22;;;;;;;9.05;4.60;;;;;;;;;;5008603;28;20043;-78
2022/01/10 03:24:48;;;;;;;9.50;5.18;;;;;;;;;;5007591;28;20097;-78
2022/01/10 03:27:15;;;;;;;9.55;5.10;;;;;;;;;;5007356;28;20046;-77
2022/01/10 03:29:43;;;;;;;7.65;4.40;;;;;;;;;;5007642;28;20058;-77
2022/01/10 03:32:11;;;;;;;10.00;5.20;;;;;;;;;;5007896;28;20042;-78
2022/01/10 03:34:38;;;;;;;8.57;4.85;;;;;;;;;;5006372;28;20053;-78
2022/01/10 03:37:05;;;;;;;9.57;5.00;;;;;;;;;;5006988;28;20046;-77
2022/01/10 03:39:32;;;;;;;7.97;5.07;;;;;;;;;;5006253;28;20073;-77
2022/01/10 03:41:59;;;;;;;9.93;5.35;;;;;;;;;;5006395;28;20408;-77
2022/01/10 03:44:26;;;;;;;11.20;5.50;;;;;;;;;;5003268;28;20049;-78
2022/01/10 03:46:56;;;;;;;8.73;4.75;;;;;;;;;;5000881;28;20050;-78
2022/01/10 03:49:23;;;;;;;8.18;5.53;;;;;;;;;;5000612;28;20050;-78
2022/01/10 03:51:49;;;;;;;11.00;5.88;;;;;;;;;;4999978;28;20046;-78
2022/01/10 03:54:16;;;;;;;10.00;5.57;;;;;;;;;;5000833;28;20061;-78
2022/01/10 03:56:43;;;;;;;8.63;5.00;;;;;;;;;;5000512;28;20058;-78
2022/01/10 03:59:10;;;;;;;9.32;5.20;;;;;;;;;;5000781;28;20072;-77
2022/01/10 04:01:39;;;;;;;8.60;5.30;;;;;;;;;;5000595;28;20066;-78
2022/01/10 04:04:07;;;;;;;9.43;5.25;;;;;;;;;;5021784;23;20041;-78
2022/01/10 04:06:34;;;;;;;10.07;6.07;;;;;;;;;;5032074;28;20052;-78
2022/01/10 04:09:03;;;;;;;9.63;5.57;;;;;;;;;;5032662;28;20103;-78
2022/01/10 04:11:30;;;;;;;10.73;5.60;;;;;;;;;;5033173;28;20045;-77
2022/01/10 04:13:56;;;;;;;9.38;5.32;;;;;;;;;;5027573;28;20077;-77
2022/01/10 04:16:23;;;;;;;10.02;5.57;;;;;;;;;;5016753;28;20083;-77
2022/01/10 04:18:50;;;;;;;7.93;4.82;;;;;;;;;;5019885;28;20080;-78
2022/01/10 04:21:18;;;;;;;10.18;5.75;;;;;;;;;;5016623;28;20053;-78
2022/01/10 04:23:45;;;;;;;9.20;5.30;;;;;;;;;;5016458;28;20050;-78
2022/01/10 04:26:11;;;;;;;9.45;5.43;;;;;;;;;;5020164;28;20054;-79
2022/01/10 04:28:38;;;;;;;9.68;5.50;;;;;;;;;;5017953;28;20488;-78
2022/01/10 04:31:05;;;;;;;7.65;5.15;;;;;;;;;;5016647;28;20500;-78
2022/01/10 04:33:32;;;;;;;8.55;5.10;;;;;;;;;;5016529;28;20077;-78
2022/01/10 04:35:59;;;;;;;9.75;5.88;;;;;;;;;;5016292;28;20050;-78
2022/01/10 04:38:27;;;;;;;10.73;6.13;;;;;;;;;;5016551;28;20077;-78
2022/01/10 04:40:54;;;;;;;8.90;5.28;;;;;;;;;;5016301;28;20528;-78
2022/01/10 04:43:22;;;;;;;10.40;5.72;;;;;;;;;;5016471;28;20052;-78
2022/01/10 04:45:48;;;;;;;9.93;5.40;;;;;;;;;;5020055;28;20050;-79
2022/01/10 04:48:17;;;;;;;9.20;5.65;;;;;;;;;;5019458;28;20072;-79
2022/01/10 04:53:29;;;;;;;9.23;6.10;;;;;;;;;;5012667;28;20100;-79
2022/01/10 04:55:56;;;;;;;10.88;5.82;;;;;;;;;;5019975;28;20046;-79
2022/01/10 04:58:23;;;;;;;9.05;6.10;;;;;;;;;;5020642;28;20050;-79
2022/01/10 05:00:51;;;;;;;12.70;6.43;;;;;;;;;;5020747;28;20132;-79
2022/01/10 05:03:19;;;;;;;11.52;5.90;;;;;;;;;;5022819;28;20088;-79
2022/01/10 05:05:46;;;;;;;10.63;6.28;;;;;;;;;;5024159;28;20046;-79
2022/01/10 05:08:12;;;;;;;10.20;5.82;;;;;;;;;;5026025;28;20096;-79
2022/01/10 05:10:42;;;;;;;15.55;7.57;;;;;;;;;;5024659;28;20050;-79
2022/01/10 05:13:09;;;;;;;10.60;6.53;;;;;;;;;;5022502;28;20050;-79
2022/01/10 05:15:35;;;;;;;12.68;7.00;;;;;;;;;;5023729;28;20050;-79
2022/01/10 05:18:02;;;;;;;11.93;7.07;;;;;;;;;;5021859;28;20064;-79
2022/01/10 05:20:29;;;;;;;12.00;6.90;;;;;;;;;;5023164;28;20053;-79
2022/01/10 05:22:55;;;;;;;11.68;7.00;;;;;;;;;;5022957;28;20046;-79
2022/01/10 05:25:22;;;;;;;11.43;6.53;;;;;;;;;;5024147;28;20056;-79
2022/01/10 05:27:50;;;;;;;11.43;6.65;;;;;;;;;;5022096;28;20049;-79
2022/01/10 05:30:17;;;;;;;16.40;8.40;;;;;;;;;;5022125;28;20084;-79
2022/01/10 05:32:44;;;;;;;12.52;7.00;;;;;;;;;;5021325;28;20528;-79
2022/01/10 05:35:11;;;;;;;12.60;7.53;;;;;;;;;;5022625;28;20042;-79
2022/01/10 05:37:38;;;;;;;10.75;6.95;;;;;;;;;;5022955;28;20050;-79
2022/01/10 05:40:05;;;;;;;11.75;6.88;;;;;;;;;;5023048;28;20045;-79
2022/01/10 05:42:32;;;;;;;14.60;8.18;;;;;;;;;;5022762;28;20085;-79
2022/01/10 05:45:02;;;;;;;12.40;7.15;;;;;;;;;;5019072;28;20088;-79
2022/01/10 05:47:28;;;;;;;13.48;7.55;;;;;;;;;;5016865;28;20088;-78
2022/01/10 05:50:01;;;;;;;14.75;7.85;;;;;;;;;;5017218;28;20053;-78
2022/01/10 05:52:28;;;;;;;14.73;7.57;;;;;;;;;;5016956;28;20382;-79
2022/01/10 05:54:55;;;;;;;13.50;7.43;;;;;;;;;;5016728;28;20082;-79
2022/01/10 05:57:21;;;;;;;16.08;8.65;;;;;;;;;;5017106;28;20050;-79
2022/01/10 05:59:48;;;;;;;16.98;8.27;;;;;;;;;;5016639;28;20100;-79
2022/01/10 06:02:16;;;;;;;13.43;8.18;;;;;;;;;;5017207;28;20077;-80
2022/01/10 06:04:43;;;;;;;13.07;7.72;;;;;;;;;;5018849;28;20083;-78
2022/01/10 06:07:09;;;;;;;13.15;7.93;;;;;;;;;;5021740;28;20057;-78
2022/01/10 06:09:36;;;;;;;12.05;7.10;;;;;;;;;;5017209;28;20078;-78
2022/01/10 06:12:04;;;;;;;14.18;8.00;;;;;;;;;;5018135;28;20100;-78
2022/01/10 06:14:31;;;;;;;11.90;7.13;;;;;;;;;;5016806;28;20049;-78
2022/01/10 06:16:57;;;;;;;18.42;8.25;;;;;;;;;;5016849;28;20081;-79
2022/01/10 06:19:25;;;;;;;12.52;8.10;;;;;;;;;;5017264;28;20049;-80
2022/01/10 06:21:53;;;;;;;13.55;8.20;;;;;;;;;;5017026;28;20504;-79
2022/01/10 06:24:20;;;;;;;14.18;8.02;;;;;;;;;;5017399;28;20053;-80
2022/01/10 06:26:46;;;;;;;14.40;8.80;;;;;;;;;;5024306;28;20053;-78
2022/01/10 06:29:13;;;;;;;15.43;8.15;;;;;;;;;;5027033;28;20053;-79
2022/01/10 06:31:40;;;;;;;16.23;9.13;;;;;;;;;;5021488;28;20041;-79
2022/01/10 06:34:06;;;;;;;13.80;8.13;;;;;;;;;;5020167;28;20447;-80
2022/01/10 06:36:35;;;;;;;17.15;7.70;;;;;;;;;;5022616;28;20056;-79
2022/01/10 06:39:01;;;;;;;13.23;7.95;;;;;;;;;;5022772;28;20050;-79
2022/01/10 06:41:28;;;;;;;14.18;8.38;;;;;;;;;;5022898;28;20049;-79
2022/01/10 06:43:55;;;;;;;15.27;8.82;;;;;;;;;;5023362;28;20050;-80
2022/01/10 06:46:21;;;;;;;15.10;8.63;;;;;;;;;;5021310;28;20065;-79
2022/01/10 06:48:48;;;;;;;13.88;8.40;;;;;;;;;;5022157;28;20045;-79
2022/01/10 06:51:15;;;;;;;15.43;8.82;;;;;;;;;;5021665;28;20119;-79
2022/01/10 06:53:43;;;;;;;16.02;8.10;;;;;;;;;;5022462;28;20042;-79
2022/01/10 06:56:10;;;;;;;15.30;8.70;;;;;;;;;;5022008;28;20078;-80
2022/01/10 06:58:37;;;;;;;14.93;8.90;;;;;;;;;;5020998;28;20082;-79
2022/01/10 07:01:04;;;;;;;13.93;8.20;;;;;;;;;;5021497;28;20468;-79
2022/01/10 07:03:31;;;;;;;14.07;8.30;;;;;;;;;;5022193;28;20046;-79
2022/01/10 07:05:57;;;;;;;16.55;8.75;;;;;;;;;;5022032;28;20459;-79
2022/01/10 07:08:24;;;;;;;14.65;9.80;;;;;;;;;;5023598;28;20050;-79
2022/01/10 07:10:52;;;;;;;12.93;8.45;;;;;;;;;;5027493;28;20050;-78
2022/01/10 07:13:19;;;;;;;19.38;9.43;;;;;;;;;;5027352;28;20049;-78
2022/01/10 07:15:45;;;;;;;14.50;8.52;;;;;;;;;;5026470;28;20046;-79
2022/01/10 07:18:12;;;;;;;16.00;9.20;;;;;;;;;;5022346;28;20605;-79
2022/01/10 07:20:39;;;;;;;17.42;9.23;;;;;;;;;;5022353;28;20057;-79
2022/01/10 07:23:06;;;;;;;15.95;8.98;;;;;;;;;;5022998;28;20045;-80
2022/01/10 07:25:32;;;;;;;16.55;9.48;;;;;;;;;;5021724;28;20046;-80
2022/01/10 07:28:00;;;;;;;16.73;8.90;;;;;;;;;;5018756;28;20539;-79
2022/01/10 07:30:27;;;;;;;13.82;8.32;;;;;;;;;;5017309;28;20049;-80
2022/01/10 07:32:54;;;;;;;15.00;9.05;;;;;;;;;;5017777;28;20104;-79
2022/01/10 07:35:21;;;;;;;18.30;9.70;;;;;;;;;;5016500;28;20081;-80
2022/01/10 07:37:48;;;;;;;15.23;8.45;;;;;;;;;;5017082;28;20079;-79
2022/01/10 07:40:15;;;;;;;16.50;9.80;;;;;;;;;;5016242;28;20077;-80
2022/01/10 07:42:42;;;;;;;15.52;8.45;;;;;;;;;;5018484;28;20050;-79
2022/01/10 07:45:11;;;;;;;12.77;8.20;;;;;;;;;;5019879;28;20080;-80
2022/01/10 07:47:38;;;;;;;15.95;8.75;;;;;;;;;;5020099;28;20050;-79
2022/01/10 07:50:07;;;;;;;16.13;9.13;;;;;;;;;;5019489;28;20496;-80
2022/01/10 07:52:33;;;;;;;16.58;10.40;;;;;;;;;;5015650;28;20088;-79
2022/01/10 07:55:03;;;;;;;19.40;9.50;;;;;;;;;;5019343;28;20081;-80
2022/01/10 07:57:30;;;;;;;23.77;11.90;;;;;;;;;;5020974;28;20046;-80
2022/01/10 07:59:57;;;;;;;22.27;12.15;;;;;;;;;;5018745;28;20275;-80
2022/01/10 08:02:28;;;;;;;15.95;10.27;;;;;;;;;;5019654;28;20077;-80
2022/01/10 08:04:54;;;;;;;16.10;9.85;;;;;;;;;;5012583;28;20050;-80
2022/01/10 08:07:21;;;;;;;23.52;9.68;;;;;;;;;;5000049;28;20050;-80
2022/01/10 08:09:48;;;;;;;22.60;11.20;;;;;;;;;;4998336;28;20050;-80
2022/01/10 08:12:15;;;;;;;22.33;13.18;;;;;;;;;;4998930;28;20080;-80
2022/01/10 08:14:42;;;;;;;16.85;10.48;;;;;;;;;;4997310;28;20062;-80
2022/01/10 08:17:09;;;;;;;17.95;11.48;;;;;;;;;;4998502;28;20070;-80
2022/01/10 08:19:37;;;;;;;22.48;11.48;;;;;;;;;;4998321;28;20077;-80
2022/01/10 08:22:05;;;;;;;22.17;11.95;;;;;;;;;;4997171;28;20054;-78
2022/01/10 08:24:32;;;;;;;18.77;10.30;;;;;;;;;;4997795;28;20043;-80
2022/01/10 08:26:59;;;;;;;17.63;9.90;;;;;;;;;;4999403;28;20058;-80
2022/01/10 08:29:26;;;;;;;21.92;11.02;;;;;;;;;;5001160;28;20070;-80
2022/01/10 08:31:53;;;;;;;18.45;10.15;;;;;;;;;;5000772;28;20046;-80
2022/01/10 08:34:21;;;;;;;16.40;9.25;;;;;;;;;;4999443;28;20046;-79
2022/01/10 08:36:49;;;;;;;19.55;10.32;;;;;;;;;;5000765;28;20054;-78
2022/01/10 08:39:27;;;;;;;20.60;10.57;;;;;;;;;;5005682;28;20050;-79
2022/01/10 08:41:54;;;;;;;22.88;10.45;;;;;;;;;;5003743;28;20046;-80
2022/01/10 08:44:20;;;;;;;21.10;9.93;;;;;;;;;;5002653;28;20053;-80
2022/01/10 08:46:48;;;;;;;20.92;11.48;;;;;;;;;;5000928;28;20069;-80
2022/01/10 08:49:14;;;;;;;22.23;10.68;;;;;;;;;;5001990;28;20101;-80
2022/01/10 08:51:42;;;;;;;20.33;10.13;;;;;;;;;;5003655;28;20112;-80
2022/01/10 08:54:10;;;;;;;19.83;10.30;;;;;;;;;;5002447;28;20098;-80
2022/01/10 08:56:37;;;;;;;19.23;10.38;;;;;;;;;;5003604;28;20545;-80
2022/01/10 08:59:04;;;;;;;31.33;17.50;;;;;;;;;;5005298;28;20244;-80
2022/01/10 09:01:31;;;;;;;26.95;14.95;;;;;;;;;;5004596;28;20066;-80
2022/01/10 09:03:59;;;;;;;22.98;11.73;;;;;;;;;;5003173;28;20046;-79
2022/01/10 09:06:26;;;;;;;19.08;10.52;;;;;;;;;;5004042;28;20088;-79
2022/01/10 09:08:53;;;;;;;18.10;9.90;;;;;;;;;;5004576;28;20046;-80
2022/01/10 09:11:24;;;;;;;22.55;10.02;;;;;;;;;;5002218;28;20039;-79
2022/01/10 09:13:50;;;;;;;;;;;;;;;;;;5002637;28;20516;-78
2022/01/10 09:16:17;;;;;;;20.67;10.02;;;;;;;;;;5002645;28;19948;-79
2022/01/10 09:18:44;;;;;;;17.63;8.98;;;;;;;;;;5004572;28;20061;-79
2022/01/10 09:21:12;;;;;;;16.80;9.38;;;;;;;;;;5002544;28;20042;-78
2022/01/10 09:23:39;;;;;;;19.63;10.02;;;;;;;;;;5001220;28;20074;-78
2022/01/10 09:26:06;;;;;;;18.50;9.35;;;;;;;;;;5003367;28;20057;-79
2022/01/10 09:28:34;;;;;;;18.77;10.10;;;;;;;;;;5001768;28;20042;-79
2022/01/10 09:31:01;;;;;;;21.55;10.10;;;;;;;;;;5001662;28;20046;-79
2022/01/10 09:33:27;;;;;;;21.00;10.68;;;;;;;;;;5000358;28;20050;-78
2022/01/10 09:35:54;;;;;;;19.77;9.90;;;;;;;;;;5001241;28;20470;-79
2022/01/10 09:38:21;;;;;;;19.30;10.30;;;;;;;;;;5002317;28;20698;-81
2022/01/10 09:40:48;;;;;;;20.25;10.35;;;;;;;;;;5005347;28;20046;-80
2022/01/10 09:43:15;;;;;;;19.08;9.48;;;;;;;;;;5003774;28;20050;-80
2022/01/10 09:45:43;;;;;;;20.38;10.27;;;;;;;;;;5004923;28;20102;-80
2022/01/10 09:48:10;;;;;;;23.70;10.63;;;;;;;;;;5002100;28;20057;-80
2022/01/10 09:50:37;;;;;;;21.63;9.98;;;;;;;;;;5005067;28;20053;-80
2022/01/10 09:53:05;;;;;;;20.50;10.93;;;;;;;;;;5005115;28;20058;-80
2022/01/10 09:55:34;;;;;;;19.20;9.25;;;;;;;;;;5004205;28;20042;-80
2022/01/10 09:58:03;;;;;;;18.65;10.18;;;;;;;;;;5004452;28;20076;-79
2022/01/10 10:00:30;;;;;;;18.40;9.40;;;;;;;;;;5001634;28;20055;-81
2022/01/10 10:02:58;;;;;;;21.95;10.93;;;;;;;;;;5001061;28;20047;-82
2022/01/10 10:08:00;;;;;;;22.13;10.35;;;;;;;;;;4990563;23;20054;-62
2022/01/10 10:10:29;;;;;;;20.15;9.73;;;;;;;;;;5012710;28;20169;-61
2022/01/10 10:12:56;;;;;;;20.02;10.68;;;;;;;;;;5011787;28;20495;-61
2022/01/10 10:15:28;;;;;;;24.08;10.20;;;;;;;;;;5012935;28;20050;-65
2022/01/10 10:17:55;;;;;;;21.40;10.73;;;;;;;;;;5012511;28;20050;-62
2022/01/10 10:20:25;;;;;;;18.15;9.90;;;;;;;;;;5012847;28;20411;-61
2022/01/10 10:22:54;;;;;;;19.10;9.95;;;;;;;;;;5012796;28;20100;-61
2022/01/10 10:25:21;;;;;;;19.02;10.35;;;;;;;;;;5013412;28;20096;-65
2022/01/10 10:27:49;;;;;;;20.05;10.95;;;;;;;;;;5013159;28;20050;-61
2022/01/10 10:30:20;;;;;;;21.75;10.82;;;;;;;;;;5013979;28;20049;-60
2022/01/10 10:32:47;;;;;;;21.23;10.30;;;;;;;;;;5012681;28;20050;-61
2022/01/10 10:35:15;;;;;;;22.30;9.82;;;;;;;;;;5012594;28;20121;-57
2022/01/10 10:37:45;;;;;;;18.20;9.27;;;;;;;;;;5012847;28;20495;-59
2022/01/10 10:40:14;;;;;;;20.52;10.70;;;;;;;;;;5012349;28;20061;-55
2022/01/10 10:42:42;;;;;;;23.10;10.40;;;;;;;;;;5007271;28;20499;-57
2022/01/10 10:45:11;;;;;;;22.25;10.48;;;;;;;;;;4973149;28;20211;-59
2022/01/10 10:47:40;;;;;;;20.95;10.43;;;;;;;;;;4973094;28;20519;-57
2022/01/10 10:50:10;;;;;;;18.52;9.93;;;;;;;;;;4973249;28;20427;-59
2022/01/10 10:52:38;;;;;;;21.60;10.25;;;;;;;;;;4984897;28;20435;-61
2022/01/10 10:55:09;;;;;;;18.50;9.77;;;;;;;;;;4992504;28;20055;-60
2022/01/10 10:57:36;;;;;;;17.98;10.48;;;;;;;;;;4995624;28;20054;-61
2022/01/10 11:00:07;;;;;;;24.33;10.10;;;;;;;;;;4991347;28;20534;-61
2022/01/10 11:02:34;;;;;;;22.10;10.93;;;;;;;;;;4992413;28;20054;-60
2022/01/10 11:05:04;;;;;;;20.75;10.43;;;;;;;;;;4992587;28;20058;-60
2022/01/10 11:07:34;;;;;;;20.52;11.07;;;;;;;;;;4992057;28;20050;-59
2022/01/10 11:10:02;;;;;;;21.13;10.52;;;;;;;;;;4991595;28;20050;-59
2022/01/10 11:12:32;;;;;;;20.58;10.02;;;;;;;;;;4991765;28;20058;-60
2022/01/10 11:15:00;;;;;;;32.30;14.20;;;;;;;;;;4992192;28;20733;-60
2022/01/10 11:17:28;;;;;;;279.95;224.30;;;;;;;;;;4991904;28;20401;-60
2022/01/10 11:20:09;;;;;;;67.88;60.80;;;;;;;;;;4992291;28;20054;-60
2022/01/10 11:22:39;;;;;;;245.38;200.77;;;;;;;;;;4991774;28;20500;-62
2022/01/10 11:25:19;;;;;;;127.78;103.88;;;;;;;;;;4992055;28;20396;-60
2022/01/10 11:27:49;;;;;;;305.38;215.57;;;;;;;;;;4991751;28;20062;-60
2022/01/10 11:30:31;;;;;;;226.73;146.07;;;;;;;;;;4991613;28;20155;-60
2022/01/10 11:33:02;;;;;;;64.53;41.67;;;;;;;;;;4992446;28;20496;-60
2022/01/10 11:35:30;;;;;;;;;;;;;;;;;;4992618;28;20058;-61
2022/01/10 11:37:57;;;;;;;19.83;10.60;;;;;;;;;;4991427;28;19929;-59
2022/01/10 11:40:26;;;;;;;21.63;11.45;;;;;;;;;;4991994;28;20051;-61
2022/01/10 11:42:58;;;;;;;22.85;11.23;;;;;;;;;;4991542;28;20440;-60
2022/01/10 11:45:26;;;;;;;21.10;10.40;;;;;;;;;;4991159;28;20474;-62
2022/01/10 11:48:16;;;;;;;20.30;9.82;;;;;;;;;;4991613;28;20389;-60
2022/01/10 11:50:45;;;;;;;16.30;8.60;;;;;;;;;;4991695;28;20082;-60
2022/01/10 11:53:16;;;;;;;19.35;9.50;;;;;;;;;;4991233;28;20046;-60
2022/01/10 11:55:45;;;;;;;18.75;9.98;;;;;;;;;;4991619;28;20077;-61
2022/01/10 11:58:22;;;;;;;16.65;9.48;;;;;;;;;;4991259;28;20494;-60
2022/01/10 12:00:51;;;;;;;17.00;9.02;;;;;;;;;;4991320;28;20058;-63
2022/01/10 12:03:21;;;;;;;22.98;12.43;;;;;;;;;;4991137;28;20054;-61
2022/01/10 12:05:49;;;;;;;29.25;14.38;;;;;;;;;;4991110;28;20424;-61
2022/01/10 12:08:16;;;;;;;20.63;10.60;;;;;;;;;;4991297;28;20092;-65
2022/01/10 12:10:44;;;;;;;20.15;11.82;;;;;;;;;;4991341;28;20046;-61
2022/01/10 12:13:12;;;;;;;28.13;14.65;;;;;;;;;;4990211;28;20046;-60
2022/01/10 12:15:40;;;;;;;26.95;13.48;;;;;;;;;;4990596;28;20618;-61
2022/01/10 12:18:08;;;;;;;24.60;11.73;;;;;;;;;;4998296;28;20055;-61
2022/01/10 12:20:36;;;;;;;20.40;11.00;;;;;;;;;;4991510;28;20085;-60
2022/01/10 12:23:03;;;;;;;23.35;10.13;;;;;;;;;;4991856;28;20507;-62
2022/01/10 12:25:30;;;;;;;20.00;10.65;;;;;;;;;;4991505;28;20054;-62
2022/01/10 12:28:00;;;;;;;18.55;11.05;;;;;;;;;;4991413;28;20057;-63
2022/01/10 12:30:28;;;;;;;21.60;11.55;;;;;;;;;;4990986;28;20491;-61
2022/01/10 12:32:56;;;;;;;18.65;10.18;;;;;;;;;;4990900;28;20058;-61
2022/01/10 12:35:23;;;;;;;22.13;10.23;;;;;;;;;;4991691;28;20050;-60
2022/01/10 12:37:57;;;;;;;21.65;10.60;;;;;;;;;;4991065;28;20389;-61
2022/01/10 12:40:24;;;;;;;18.60;10.65;;;;;;;;;;4991057;28;20055;-61
2022/01/10 12:42:53;;;;;;;20.05;11.40;;;;;;;;;;4991338;28;20059;-61
2022/01/10 12:45:21;;;;;;;19.08;9.90;;;;;;;;;;4990465;28;20553;-61
2022/01/10 12:47:48;;;;;;;20.60;10.93;;;;;;;;;;4992551;28;20610;-61
2022/01/10 12:50:20;;;;;;;18.42;10.05;;;;;;;;;;4991324;28;20057;-61
2022/01/10 12:52:46;;;;;;;19.77;11.18;;;;;;;;;;4991559;28;20054;-64
2022/01/10 12:55:13;;;;;;;18.23;9.05;;;;;;;;;;4990709;28;20054;-60
2022/01/10 12:57:41;;;;;;;16.80;9.30;;;;;;;;;;4991228;28;20458;-62
2022/01/10 13:00:10;;;;;;;17.30;9.55;;;;;;;;;;4990899;28;20108;-60
2022/01/10 13:02:37;;;;;;;19.13;9.68;;;;;;;;;;4991390;28;20086;-61
2022/01/10 13:05:07;;;;;;;22.10;10.70;;;;;;;;;;4991045;28;20542;-62
2022/01/10 13:07:37;;;;;;;21.10;9.67;;;;;;;;;;4990533;28;20411;-62
2022/01/10 13:10:07;;;;;;;15.90;9.63;;;;;;;;;;4990551;28;20093;-62
2022/01/10 13:12:35;;;;;;;17.97;10.17;;;;;;;;;;4991146;28;20120;-61
2022/01/10 13:15:10;;;;;;;14.95;9.05;;;;;;;;;;4990006;28;20276;-60
2022/01/10 13:17:38;;;;;;;16.70;8.98;;;;;;;;;;4990227;28;20090;-60
2022/01/10 13:20:08;;;;;;;16.83;9.23;;;;;;;;;;4990470;28;20113;-60
2022/01/10 13:22:38;;;;;;;19.42;9.18;;;;;;;;;;4990796;28;20050;-60
2022/01/10 13:25:08;;;;;;;18.63;9.13;;;;;;;;;;4994319;28;20065;-60
2022/01/10 13:27:37;;;;;;;22.00;10.85;;;;;;;;;;4994608;28;20050;-61
2022/01/10 13:30:16;;;;;;;19.45;9.70;;;;;;;;;;4993715;28;20455;-61
2022/01/10 13:32:45;;;;;;;18.38;9.02;;;;;;;;;;4993926;28;20054;-60
2022/01/10 13:35:16;;;;;;;16.80;9.25;;;;;;;;;;4994315;28;20047;-61
2022/01/10 13:37:48;;;;;;;20.10;8.88;;;;;;;;;;4991220;28;20547;-61
2022/01/10 13:40:18;;;;;;;17.30;8.30;;;;;;;;;;4988825;28;20094;-61
2022/01/10 13:42:51;;;;;;;19.23;10.07;;;;;;;;;;4988489;28;20535;-61
2022/01/10 13:45:41;;;;;;;19.30;10.18;;;;;;;;;;4983196;28;20539;-60
2022/01/10 13:48:09;;;;;;;17.38;9.90;;;;;;;;;;4993580;28;20051;-60
2022/01/10 13:50:41;;;;;;;21.70;10.30;;;;;;;;;;4994335;28;20050;-61
2022/01/10 13:53:12;;;;;;;14.88;9.18;;;;;;;;;;4994811;28;20050;-59
2022/01/10 13:55:43;;;;;;;18.55;10.13;;;;;;;;;;4994466;28;20074;-62
2022/01/10 13:58:27;;;;;;;21.13;10.57;;;;;;;;;;4991047;28;20051;-61
2022/01/10 14:00:56;;;;;;;19.15;10.18;;;;;;;;;;4989101;28;20108;-60
2022/01/10 14:03:25;;;;;;;19.40;10.05;;;;;;;;;;4984360;28;20420;-61
2022/01/10 14:06:10;;;;;;;17.95;10.15;;;;;;;;;;4991155;28;20144;-62
2022/01/10 14:08:39;;;;;;;19.88;10.00;;;;;;;;;;4993861;28;20089;-61
2022/01/10 14:11:07;;;;;;;19.42;10.00;;;;;;;;;;4993637;28;20068;-61
2022/01/10 14:13:35;;;;;;;20.70;9.68;;;;;;;;;;4990220;28;20461;-61
2022/01/10 14:16:02;;;;;;;18.65;9.55;;;;;;;;;;4983897;28;20525;-61
2022/01/10 14:18:30;;;;;;;17.00;9.70;;;;;;;;;;4979099;28;20466;-60
2022/01/10 14:20:56;;;;;;;18.52;9.73;;;;;;;;;;4983358;28;20054;-62
2022/01/10 14:23:25;;;;;;;18.67;9.90;;;;;;;;;;4993842;28;20061;-61
2022/01/10 14:25:55;;;;;;;21.70;9.82;;;;;;;;;;4987444;28;20042;-59
2022/01/10 14:28:22;;;;;;;16.98;9.43;;;;;;;;;;4992860;28;20455;-64
2022/01/10 14:30:50;;;;;;;21.33;12.10;;;;;;;;;;4985924;28;20042;-60
2022/01/10 14:33:22;;;;;;;54.10;25.73;;;;;;;;;;4982012;28;20051;-58
2022/01/10 14:35:50;;;;;;;22.98;12.10;;;;;;;;;;4973951;28;20050;-64
2022/01/10 14:38:17;;;;;;;18.13;10.13;;;;;;;;;;4974452;28;20492;-66
2022/01/10 14:40:44;;;;;;;21.30;11.50;;;;;;;;;;4974287;28;20051;-63
2022/01/10 14:43:13;;;;;;;19.55;10.75;;;;;;;;;;4973806;28;20467;-63
2022/01/10 14:45:40;;;;;;;20.80;9.82;;;;;;;;;;4984901;28;20073;-62